Time;durP1;ratioP1;P1;durP2;ratioP2;P2;SDS_P1;SDS_P2;PMS_P1;PMS_P2;Temp;Humidity;BMP_temperature;BMP_pressure;BME280_temperature;BME280_humidity;BME280_pressure;Samples;Min_cycle;Max_cycle;Signal;HPM_P1;HPM_P2
2024/03/19 00:01:47;;;;;;;7.93;7.13;;;9.70;90.10;;;;;;4994543;28;20269;-68
2024/03/19 00:04:14;;;;;;;7.97;7.27;;;9.80;90.10;;;;;;4994506;28;20263;-68
2024/03/19 00:06:41;;;;;;;9.47;8.57;;;9.80;90.00;;;;;;4994454;28;20217;-68
2024/03/19 00:09:08;;;;;;;8.33;7.60;;;9.80;90.00;;;;;;4990283;28;20211;-68
2024/03/19 00:11:35;;;;;;;10.47;7.87;;;9.80;90.00;;;;;;4982646;28;20226;-68
2024/03/19 00:14:01;;;;;;;8.50;7.70;;;9.80;89.70;;;;;;4994194;28;20213;-67
2024/03/19 00:16:28;;;;;;;8.83;8.03;;;9.80;89.80;;;;;;4994418;28;20608;-67
2024/03/19 00:18:55;;;;;;;10.00;9.00;;;9.80;89.70;;;;;;4990380;28;20234;-68
2024/03/19 00:21:21;;;;;;;8.43;7.63;;;9.70;89.90;;;;;;4993924;28;20230;-68
2024/03/19 00:23:48;;;;;;;9.30;8.40;;;9.90;89.70;;;;;;4994123;28;20214;-68
2024/03/19 00:26:15;;;;;;;9.77;8.77;;;9.90;89.30;;;;;;4989623;28;20304;-68
2024/03/19 00:28:42;;;;;;;9.57;8.67;;;9.90;89.20;;;;;;4992875;28;20205;-68
2024/03/19 00:31:10;;;;;;;9.37;8.47;;;9.90;88.40;;;;;;5315453;22;20276;-67
2024/03/19 00:33:37;;;;;;;8.73;7.93;;;9.90;88.60;;;;;;5000989;28;20718;-68
2024/03/19 00:36:04;;;;;;;9.90;8.93;;;9.80;89.80;;;;;;5010065;28;20587;-68
2024/03/19 00:38:30;;;;;;;9.00;8.10;;;9.90;89.40;;;;;;5006414;28;20235;-68
2024/03/19 00:40:57;;;;;;;8.73;7.93;;;9.80;88.90;;;;;;5006499;28;20221;-68
2024/03/19 00:43:24;;;;;;;9.10;8.30;;;9.90;88.50;;;;;;5013001;28;20231;-68
2024/03/19 00:45:50;;;;;;;9.97;8.80;;;9.90;88.70;;;;;;5013588;28;20215;-68
2024/03/19 00:48:17;;;;;;;8.70;7.80;;;9.90;88.50;;;;;;5013401;28;20210;-67
2024/03/19 00:50:44;;;;;;;9.00;8.10;;;9.80;88.60;;;;;;5004869;28;20217;-68
2024/03/19 00:53:10;;;;;;;9.77;8.77;;;9.80;88.50;;;;;;5007191;28;20308;-68
2024/03/19 00:55:38;;;;;;;9.67;8.70;;;9.80;88.90;;;;;;5007875;28;20787;-67
2024/03/19 00:58:04;;;;;;;10.60;9.00;;;9.90;87.80;;;;;;5014055;28;20311;-68
2024/03/19 01:00:31;;;;;;;10.23;9.20;;;9.70;88.20;;;;;;5014337;28;20680;-68
2024/03/19 01:02:58;;;;;;;11.23;9.43;;;9.60;89.60;;;;;;5013102;28;20236;-68
2024/03/19 01:05:25;;;;;;;10.47;9.37;;;9.60;90.00;;;;;;5013074;28;20214;-68
2024/03/19 01:07:51;;;;;;;10.63;9.60;;;9.70;89.50;;;;;;5005682;28;20256;-68
2024/03/19 01:10:18;;;;;;;10.47;9.47;;;9.60;88.90;;;;;;5012832;28;20211;-68
2024/03/19 01:12:45;;;;;;;10.67;9.57;;;9.60;88.80;;;;;;5012812;28;20830;-68
2024/03/19 01:15:12;;;;;;;11.10;10.00;;;9.70;88.90;;;;;;5007087;28;20571;-67
2024/03/19 01:17:39;;;;;;;10.40;9.30;;;9.70;88.70;;;;;;5005076;28;20206;-68
2024/03/19 01:20:09;;;;;;;11.13;9.83;;;9.70;88.40;;;;;;5009564;28;20232;-67
2024/03/19 01:22:36;;;;;;;11.53;9.77;;;9.60;88.60;;;;;;5003350;28;20234;-68
2024/03/19 01:25:03;;;;;;;11.17;9.87;;;9.60;88.70;;;;;;5004615;28;20212;-68
2024/03/19 01:27:30;;;;;;;12.03;10.60;;;9.60;89.90;;;;;;5012665;28;20215;-68
2024/03/19 01:29:56;;;;;;;12.10;10.43;;;9.50;90.10;;;;;;5013294;28;20197;-68
2024/03/19 01:32:23;;;;;;;11.27;10.10;;;9.50;89.70;;;;;;5008039;28;20271;-67
2024/03/19 01:34:50;;;;;;;11.70;10.17;;;9.60;90.30;;;;;;5002377;28;20212;-68
2024/03/19 01:37:17;;;;;;;12.50;10.60;;;9.50;90.10;;;;;;5010881;28;20213;-68
2024/03/19 01:39:43;;;;;;;12.17;10.93;;;9.60;90.00;;;;;;5012309;28;20232;-68
2024/03/19 01:42:10;;;;;;;12.83;11.40;;;9.60;90.00;;;;;;5007775;28;20727;-68
2024/03/19 01:44:37;;;;;;;10.93;9.57;;;9.50;90.00;;;;;;5008599;28;20213;-68
2024/03/19 01:47:04;;;;;;;12.17;10.87;;;9.50;90.30;;;;;;5007375;28;20635;-67
2024/03/19 01:49:31;;;;;;;12.87;10.67;;;9.50;90.10;;;;;;5007932;28;20200;-68
2024/03/19 01:51:57;;;;;;;11.70;10.50;;;9.50;90.20;;;;;;5011251;28;20297;-68
2024/03/19 01:54:24;;;;;;;13.23;10.97;;;9.60;90.30;;;;;;5012181;28;20228;-68
2024/03/19 01:56:50;;;;;;;14.00;11.27;;;9.50;90.10;;;;;;5011882;28;20211;-67
2024/03/19 01:59:17;;;;;;;12.13;10.57;;;9.50;90.30;;;;;;5012296;28;20239;-67
2024/03/19 02:01:44;;;;;;;13.27;11.87;;;9.60;89.60;;;;;;5011452;28;20319;-68
2024/03/19 02:04:11;;;;;;;14.73;11.90;;;9.50;89.90;;;;;;5005607;28;20672;-68
2024/03/19 02:06:37;;;;;;;14.80;11.90;;;9.40;90.20;;;;;;5007800;28;20217;-68
2024/03/19 02:09:03;;;;;;;13.23;11.50;;;9.40;90.50;;;;;;5012188;28;20246;-68
2024/03/19 02:11:29;;;;;;;13.10;11.70;;;9.40;90.30;;;;;;5011767;28;20264;-67
2024/03/19 02:13:56;;;;;;;13.23;11.33;;;9.40;90.70;;;;;;5012491;28;20206;-68
2024/03/19 02:16:23;;;;;;;12.93;11.07;;;9.40;90.60;;;;;;5018405;28;20232;-68
2024/03/19 02:18:49;;;;;;;13.77;11.23;;;9.50;90.40;;;;;;5018515;28;20577;-68
2024/03/19 02:21:16;;;;;;;13.30;10.97;;;9.50;90.30;;;;;;5012800;28;20240;-68
2024/03/19 02:23:43;;;;;;;12.40;11.10;;;9.50;90.10;;;;;;5016673;28;20216;-68
2024/03/19 02:26:09;;;;;;;13.53;11.57;;;9.50;90.00;;;;;;5018563;28;20201;-68
2024/03/19 02:28:36;;;;;;;13.30;11.40;;;9.50;90.10;;;;;;5018013;28;20236;-68
2024/03/19 02:31:02;;;;;;;12.50;11.17;;;9.50;89.70;;;;;;5009773;28;20668;-68
2024/03/19 02:33:29;;;;;;;12.87;10.60;;;9.60;89.70;;;;;;5010256;28;20216;-68
2024/03/19 02:35:56;;;;;;;13.47;11.57;;;9.50;89.60;;;;;;5014705;28;20205;-68
2024/03/19 02:38:24;;;;;;;13.30;11.50;;;9.50;90.10;;;;;;5011398;28;20228;-67
2024/03/19 02:40:51;;;;;;;13.97;11.77;;;9.40;90.30;;;;;;5017660;28;20286;-68
2024/03/19 02:43:17;;;;;;;13.03;11.33;;;9.40;90.30;;;;;;5017494;28;20229;-68
2024/03/19 02:45:44;;;;;;;12.87;11.43;;;9.50;90.10;;;;;;5018333;28;20211;-68
2024/03/19 02:48:12;;;;;;;13.17;11.73;;;9.50;90.20;;;;;;5018286;28;20300;-67
2024/03/19 02:50:39;;;;;;;13.70;11.80;;;9.40;90.40;;;;;;5015548;28;20213;-68
2024/03/19 02:53:05;;;;;;;12.50;11.20;;;9.50;90.50;;;;;;5012842;28;20650;-68
2024/03/19 02:55:32;;;;;;;13.70;11.57;;;9.40;90.60;;;;;;5014018;28;20212;-68
2024/03/19 02:57:59;;;;;;;13.43;11.20;;;9.50;90.50;;;;;;5016469;28;20200;-68
2024/03/19 03:00:25;;;;;;;12.70;11.33;;;9.50;90.30;;;;;;5017981;28;20225;-67
2024/03/19 03:02:52;;;;;;;14.00;11.50;;;9.50;89.90;;;;;;5010937;28;20227;-68
2024/03/19 03:05:19;;;;;;;13.27;11.67;;;9.50;90.40;;;;;;5018381;28;20214;-68
2024/03/19 03:07:45;;;;;;;13.87;11.30;;;9.50;90.50;;;;;;5018013;28;20204;-67
2024/03/19 03:10:12;;;;;;;13.30;11.47;;;9.40;90.70;;;;;;5018002;28;20205;-67
2024/03/19 03:12:39;;;;;;;13.00;11.60;;;9.40;90.70;;;;;;5017628;28;20224;-68
2024/03/19 03:15:05;;;;;;;14.37;11.80;;;9.40;90.70;;;;;;5012820;28;20676;-68
2024/03/19 03:17:32;;;;;;;12.77;11.40;;;9.40;90.20;;;;;;5018192;28;20209;-67
2024/03/19 03:19:59;;;;;;;13.10;11.70;;;9.40;90.00;;;;;;5017830;28;20233;-67
2024/03/19 03:22:25;;;;;;;13.80;11.83;;;9.40;90.30;;;;;;5017108;28;20230;-68
2024/03/19 03:24:52;;;;;;;15.57;12.53;;;9.40;90.20;;;;;;5009784;28;20216;-67
2024/03/19 03:27:19;;;;;;;15.13;11.83;;;9.30;90.50;;;;;;5014018;28;20654;-67
2024/03/19 03:29:46;;;;;;;13.57;11.73;;;9.40;90.70;;;;;;5014698;28;20240;-68
2024/03/19 03:32:12;;;;;;;14.13;11.50;;;9.30;90.60;;;;;;5008096;28;20267;-67
2024/03/19 03:34:39;;;;;;;14.10;11.50;;;9.30;90.50;;;;;;5010290;28;20208;-67
2024/03/19 03:37:06;;;;;;;15.70;12.07;;;9.40;90.50;;;;;;5006164;28;20197;-67
2024/03/19 03:39:33;;;;;;;15.60;12.53;;;9.30;90.40;;;;;;5009938;28;20220;-67
2024/03/19 03:41:59;;;;;;;14.40;12.20;;;9.20;90.60;;;;;;5012990;28;20641;-67
2024/03/19 03:44:26;;;;;;;15.47;12.27;;;9.30;90.60;;;;;;5013277;28;20207;-68
2024/03/19 03:46:52;;;;;;;16.20;11.57;;;9.20;90.80;;;;;;5013329;28;20789;-67
2024/03/19 03:49:19;;;;;;;15.20;12.80;;;9.20;91.10;;;;;;5009972;28;20235;-68
2024/03/19 03:51:46;;;;;;;16.33;12.57;;;9.20;90.90;;;;;;5013824;28;20318;-68
2024/03/19 03:54:13;;;;;;;15.57;13.00;;;9.20;90.80;;;;;;5014370;28;20250;-67
2024/03/19 03:56:40;;;;;;;15.10;12.37;;;9.20;90.70;;;;;;5014269;28;20213;-67
2024/03/19 03:59:06;;;;;;;16.20;12.57;;;9.20;90.90;;;;;;5008257;28;20228;-66
2024/03/19 04:01:33;;;;;;;15.00;12.53;;;9.30;90.80;;;;;;5014069;28;20722;-67
2024/03/19 04:04:00;;;;;;;14.23;11.90;;;9.30;90.40;;;;;;5013504;28;20235;-67
2024/03/19 04:06:27;;;;;;;15.77;12.57;;;9.30;90.70;;;;;;5009726;28;20586;-67
2024/03/19 04:08:54;;;;;;;15.60;12.87;;;9.30;90.60;;;;;;5012379;28;20205;-68
2024/03/19 04:11:20;;;;;;;15.80;13.10;;;9.30;90.70;;;;;;5010863;28;20325;-67
2024/03/19 04:13:47;;;;;;;16.63;13.10;;;9.40;90.50;;;;;;5014920;28;20208;-67
2024/03/19 04:16:13;;;;;;;17.00;12.20;;;9.40;90.80;;;;;;5011603;28;20214;-67
2024/03/19 04:18:40;;;;;;;15.67;12.67;;;9.30;90.70;;;;;;5015623;28;20212;-68
2024/03/19 04:21:07;;;;;;;14.40;12.90;;;9.30;90.50;;;;;;5018913;28;20205;-67
2024/03/19 04:23:33;;;;;;;15.77;12.87;;;9.30;90.60;;;;;;5017898;28;20739;-67
2024/03/19 04:26:00;;;;;;;15.33;12.33;;;9.30;90.80;;;;;;5008074;28;20200;-68
2024/03/19 04:28:27;;;;;;;14.50;12.43;;;9.30;90.70;;;;;;5010838;28;20580;-68
2024/03/19 04:30:53;;;;;;;14.23;11.63;;;9.30;90.40;;;;;;5018349;28;20208;-68
2024/03/19 04:33:20;;;;;;;15.87;12.73;;;9.30;90.60;;;;;;5019236;28;20262;-68
2024/03/19 04:35:47;;;;;;;15.97;12.60;;;9.30;90.30;;;;;;5015055;28;20685;-70
2024/03/19 04:38:14;;;;;;;15.77;13.10;;;9.30;90.30;;;;;;5014666;28;20216;-68
2024/03/19 04:40:40;;;;;;;15.27;12.90;;;9.30;90.60;;;;;;5016394;28;20232;-68
2024/03/19 04:43:07;;;;;;;15.77;12.47;;;9.30;90.80;;;;;;5010025;28;20236;-68
2024/03/19 04:45:33;;;;;;;16.63;12.83;;;9.40;90.60;;;;;;5012364;28;20671;-68
2024/03/19 04:48:00;;;;;;;15.07;12.43;;;9.40;90.30;;;;;;5010379;28;20295;-69
2024/03/19 04:50:28;;;;;;;14.20;12.07;;;9.30;90.60;;;;;;5000760;28;20296;-68
2024/03/19 04:52:55;;;;;;;15.07;12.07;;;9.30;90.30;;;;;;5009928;28;20229;-67
2024/03/19 04:55:22;;;;;;;16.40;12.80;;;9.30;90.40;;;;;;5014617;28;20216;-68
2024/03/19 04:57:48;;;;;;;17.33;13.10;;;9.40;90.20;;;;;;5011928;28;20637;-67
2024/03/19 05:00:16;;;;;;;16.33;13.60;;;9.30;90.10;;;;;;5004175;28;20230;-67
2024/03/19 05:02:43;;;;;;;17.17;13.60;;;9.30;90.70;;;;;;5005941;28;20771;-68
2024/03/19 05:05:09;;;;;;;16.97;12.60;;;9.30;90.60;;;;;;5013381;28;20213;-69
2024/03/19 05:07:36;;;;;;;13.90;12.27;;;9.20;90.40;;;;;;5010472;28;20300;-68
2024/03/19 05:10:03;;;;;;;16.23;13.13;;;9.20;90.50;;;;;;5005255;28;20204;-68
2024/03/19 05:12:30;;;;;;;15.53;12.77;;;9.30;90.60;;;;;;5013017;28;20224;-69
2024/03/19 05:14:57;;;;;;;15.53;13.17;;;9.30;90.40;;;;;;5012929;28;20212;-68
2024/03/19 05:17:23;;;;;;;15.53;12.90;;;9.40;90.40;;;;;;5007606;28;20213;-68
2024/03/19 05:19:50;;;;;;;16.07;13.13;;;9.40;90.20;;;;;;5004756;28;20672;-67
2024/03/19 05:22:17;;;;;;;15.03;12.23;;;9.40;90.00;;;;;;4999105;28;20584;-69
2024/03/19 05:24:44;;;;;;;13.70;11.60;;;9.30;89.60;;;;;;5012600;28;20216;-68
2024/03/19 05:27:11;;;;;;;13.97;12.20;;;9.30;90.00;;;;;;5012605;28;20677;-68
2024/03/19 05:29:38;;;;;;;16.10;12.40;;;9.20;90.30;;;;;;5004072;28;20224;-68
2024/03/19 05:32:05;;;;;;;15.63;12.10;;;9.30;90.50;;;;;;5010508;28;20684;-68
2024/03/19 05:34:31;;;;;;;16.60;13.53;;;9.30;90.50;;;;;;5012767;28;20209;-68
2024/03/19 05:36:57;;;;;;;15.53;11.93;;;9.20;90.50;;;;;;5001873;28;20266;-68
2024/03/19 05:39:24;;;;;;;16.63;12.53;;;9.30;90.70;;;;;;5011497;28;20227;-68
2024/03/19 05:41:51;;;;;;;16.07;12.67;;;9.20;90.60;;;;;;5001469;28;20304;-68
2024/03/19 05:44:17;;;;;;;17.73;12.97;;;9.30;90.40;;;;;;5013116;28;20204;-68
2024/03/19 05:46:45;;;;;;;16.47;12.77;;;9.40;90.00;;;;;;5014486;28;20205;-68
2024/03/19 05:49:11;;;;;;;14.60;12.20;;;9.30;88.90;;;;;;5006948;28;20632;-68
2024/03/19 05:51:38;;;;;;;14.60;11.80;;;9.30;89.70;;;;;;5008189;28;20237;-68
2024/03/19 05:54:04;;;;;;;17.40;13.40;;;9.30;89.70;;;;;;5000090;28;20204;-68
2024/03/19 05:56:31;;;;;;;15.40;13.07;;;9.40;88.80;;;;;;5011418;28;20208;-68
2024/03/19 05:58:58;;;;;;;14.23;12.43;;;9.40;88.90;;;;;;5011919;28;20223;-68
2024/03/19 06:01:25;;;;;;;16.20;12.33;;;9.50;88.00;;;;;;5008373;28;20236;-67
2024/03/19 06:03:51;;;;;;;15.37;12.30;;;9.50;87.60;;;;;;5005160;28;20231;-67
2024/03/19 06:06:18;;;;;;;17.73;13.03;;;9.40;88.50;;;;;;5008689;28;20220;-67
2024/03/19 06:08:45;;;;;;;16.03;13.47;;;9.50;89.00;;;;;;5001627;28;20218;-68
2024/03/19 06:11:12;;;;;;;16.03;12.90;;;9.40;89.40;;;;;;5005901;28;20207;-68
2024/03/19 06:13:38;;;;;;;17.97;13.83;;;9.40;89.20;;;;;;5001490;28;20578;-69
2024/03/19 06:16:05;;;;;;;16.07;12.97;;;9.50;89.00;;;;;;5011739;28;20208;-67
2024/03/19 06:18:32;;;;;;;15.03;12.77;;;9.50;88.30;;;;;;5011981;28;20282;-68
2024/03/19 06:20:59;;;;;;;15.30;11.83;;;9.40;88.10;;;;;;5011809;28;20227;-68
2024/03/19 06:23:26;;;;;;;15.30;11.80;;;9.50;88.00;;;;;;5007488;28;20243;-68
2024/03/19 06:25:52;;;;;;;15.63;12.37;;;9.60;88.30;;;;;;5004924;28;20560;-67
2024/03/19 06:28:19;;;;;;;16.73;11.87;;;9.50;88.30;;;;;;5010589;28;20713;-68
2024/03/19 06:30:46;;;;;;;13.57;11.77;;;9.50;88.70;;;;;;5011431;28;20223;-68
2024/03/19 06:33:12;;;;;;;18.60;12.83;;;9.50;89.20;;;;;;5009213;28;20589;-68
2024/03/19 06:35:38;;;;;;;14.93;12.33;;;9.50;89.20;;;;;;5005913;28;20295;-68
2024/03/19 06:38:05;;;;;;;14.83;12.30;;;9.50;88.60;;;;;;5011054;28;20791;-68
2024/03/19 06:40:31;;;;;;;16.07;12.37;;;9.40;88.50;;;;;;5007415;28;20228;-67
2024/03/19 06:42:58;;;;;;;17.93;12.60;;;9.40;87.40;;;;;;5010557;28;20239;-68
2024/03/19 06:45:26;;;;;;;13.93;11.77;;;9.40;87.90;;;;;;4998002;28;20208;-67
2024/03/19 06:47:53;;;;;;;16.50;13.37;;;9.40;88.20;;;;;;4998267;28;20212;-67
2024/03/19 06:50:20;;;;;;;15.33;12.53;;;9.30;87.70;;;;;;5008664;28;20212;-68
2024/03/19 06:52:46;;;;;;;15.53;12.17;;;9.40;88.80;;;;;;5004417;28;20253;-67
2024/03/19 06:55:13;;;;;;;16.43;12.70;;;9.50;87.90;;;;;;5011496;28;20214;-68
2024/03/19 06:57:40;;;;;;;16.13;11.97;;;9.60;87.80;;;;;;5006294;28;20292;-67
2024/03/19 07:00:13;;;;;;;15.27;12.07;;;9.60;88.10;;;;;;5003187;28;20231;-67
2024/03/19 07:02:40;;;;;;;15.47;12.63;;;9.60;87.50;;;;;;5007630;28;20256;-68
2024/03/19 07:05:08;;;;;;;15.73;13.00;;;9.50;87.00;;;;;;4991468;28;20736;-67
2024/03/19 07:07:34;;;;;;;16.93;12.83;;;9.60;87.30;;;;;;5005335;28;20200;-68
2024/03/19 07:10:01;;;;;;;16.90;12.57;;;9.60;87.50;;;;;;5009642;28;20202;-67
2024/03/19 07:12:28;;;;;;;16.03;13.80;;;9.70;87.60;;;;;;5000146;28;20233;-68
2024/03/19 07:14:57;;;;;;;17.87;13.50;;;9.70;87.00;;;;;;4997813;28;20765;-68
2024/03/19 07:17:23;;;;;;;15.97;12.40;;;9.70;87.50;;;;;;4984795;28;20208;-68
2024/03/19 07:19:50;;;;;;;14.20;12.33;;;9.50;87.70;;;;;;4986860;28;20221;-69
2024/03/19 07:22:17;;;;;;;15.57;12.10;;;9.80;86.90;;;;;;5007251;28;20301;-68
2024/03/19 07:24:44;;;;;;;17.10;11.73;;;9.70;86.40;;;;;;5012898;28;20660;-68
2024/03/19 07:27:10;;;;;;;15.93;13.47;;;9.80;85.90;;;;;;4999969;28;20210;-67
2024/03/19 07:29:37;;;;;;;17.63;12.93;;;9.80;85.20;;;;;;5002083;28;20206;-69
2024/03/19 07:32:04;;;;;;;17.03;12.87;;;9.80;85.80;;;;;;4992441;28;20233;-67
2024/03/19 07:34:30;;;;;;;16.20;12.37;;;9.80;86.20;;;;;;5009067;28;20290;-69
2024/03/19 07:36:57;;;;;;;17.07;13.23;;;9.90;85.70;;;;;;4995607;28;21229;-69
2024/03/19 07:39:25;;;;;;;17.73;13.30;;;9.90;85.70;;;;;;5000208;28;20728;-68
2024/03/19 07:41:51;;;;;;;17.63;13.27;;;9.90;86.60;;;;;;5003329;28;20228;-68
2024/03/19 07:44:18;;;;;;;16.60;13.50;;;9.90;86.10;;;;;;5010999;28;20213;-67
2024/03/19 07:46:45;;;;;;;15.83;12.27;;;9.90;85.70;;;;;;5004826;28;20216;-67
2024/03/19 07:49:12;;;;;;;16.17;13.33;;;9.90;85.10;;;;;;5002208;28;20217;-67
2024/03/19 07:51:39;;;;;;;16.70;13.17;;;9.80;85.20;;;;;;4997427;28;20262;-72
2024/03/19 07:54:05;;;;;;;15.50;13.00;;;9.90;85.70;;;;;;5004673;28;20657;-67
2024/03/19 07:56:33;;;;;;;17.63;13.67;;;9.90;85.30;;;;;;5004113;28;20285;-67
2024/03/19 07:59:00;;;;;;;16.23;12.73;;;10.00;84.80;;;;;;5000472;28;20259;-67
2024/03/19 08:01:27;;;;;;;14.63;12.00;;;10.30;83.70;;;;;;5006937;28;20231;-65
2024/03/19 08:03:54;;;;;;;16.97;12.27;;;10.30;83.50;;;;;;5013470;28;20751;-68
2024/03/19 08:06:21;;;;;;;16.03;13.57;;;10.20;82.80;;;;;;5013310;28;20707;-67
2024/03/19 08:08:47;;;;;;;17.17;13.10;;;10.30;83.50;;;;;;5004706;28;20667;-68
2024/03/19 08:11:15;;;;;;;17.07;12.97;;;10.40;83.70;;;;;;5007297;28;20202;-68
2024/03/19 08:13:41;;;;;;;17.43;14.67;;;10.50;83.60;;;;;;4977086;28;20465;-68
2024/03/19 08:16:08;;;;;;;18.67;13.70;;;10.60;82.70;;;;;;4999336;28;20219;-67
2024/03/19 08:18:35;;;;;;;17.43;13.23;;;10.60;82.60;;;;;;5002128;28;20207;-68
2024/03/19 08:21:02;;;;;;;19.20;15.20;;;10.50;83.20;;;;;;5005764;28;20226;-67
2024/03/19 08:23:28;;;;;;;15.97;12.73;;;10.40;82.90;;;;;;5007505;28;20230;-67
2024/03/19 08:25:56;;;;;;;16.27;13.37;;;10.40;82.80;;;;;;4987816;28;20285;-67
2024/03/19 08:28:23;;;;;;;18.53;14.83;;;10.40;82.90;;;;;;5009917;28;20701;-67
2024/03/19 08:30:50;;;;;;;19.67;14.80;;;10.30;83.20;;;;;;5012270;28;20609;-68
2024/03/19 08:33:17;;;;;;;17.90;14.40;;;10.30;83.40;;;;;;5005834;28;20725;-67
2024/03/19 08:35:43;;;;;;;20.83;15.27;;;10.40;84.30;;;;;;5004472;28;20551;-68
2024/03/19 08:38:10;;;;;;;18.27;13.23;;;10.40;83.10;;;;;;5000643;28;20221;-67
2024/03/19 08:40:36;;;;;;;17.93;13.37;;;10.50;82.30;;;;;;5012742;28;20230;-67
2024/03/19 08:43:04;;;;;;;17.90;14.00;;;10.70;80.90;;;;;;5006084;28;20234;-66
2024/03/19 08:45:31;;;;;;;15.07;13.47;;;11.10;79.60;;;;;;5000142;28;20213;-67
2024/03/19 08:47:58;;;;;;;15.30;13.63;;;11.20;77.20;;;;;;5004868;28;21052;-68
2024/03/19 08:50:25;;;;;;;15.03;12.03;;;11.10;76.40;;;;;;4971219;28;20203;-66
2024/03/19 08:52:52;;;;;;;14.93;12.47;;;11.10;76.00;;;;;;4974896;28;20665;-67
2024/03/19 08:55:18;;;;;;;13.63;12.03;;;11.30;76.50;;;;;;4982820;28;20211;-66
2024/03/19 08:57:45;;;;;;;14.07;11.60;;;11.50;75.00;;;;;;4968165;28;20211;-67
2024/03/19 09:00:15;;;;;;;14.40;11.40;;;11.10;75.20;;;;;;4994694;28;20222;-67
2024/03/19 09:02:42;;;;;;;12.93;10.90;;;11.20;77.00;;;;;;4988859;28;20811;-67
2024/03/19 09:05:09;;;;;;;14.53;11.37;;;11.50;75.30;;;;;;4984571;28;20219;-68
2024/03/19 09:07:36;;;;;;;13.20;10.67;;;11.70;73.30;;;;;;4984378;28;20219;-67
2024/03/19 09:10:03;;;;;;;12.83;10.73;;;11.90;73.60;;;;;;4995557;28;20258;-68
2024/03/19 09:12:30;;;;;;;14.73;12.03;;;12.10;71.80;;;;;;4988598;28;20271;-68
2024/03/19 09:14:59;;;;;;;14.70;10.90;;;12.20;71.80;;;;;;5017821;28;20206;-70
2024/03/19 09:17:26;;;;;;;13.83;11.17;;;12.10;71.90;;;;;;4994151;28;20210;-67
2024/03/19 09:19:53;;;;;;;12.03;10.50;;;12.10;72.50;;;;;;4995927;28;20244;-68
2024/03/19 09:22:19;;;;;;;12.23;10.93;;;12.10;71.60;;;;;;4984948;28;20235;-67
2024/03/19 09:24:46;;;;;;;11.37;9.90;;;12.10;72.70;;;;;;4997966;28;20213;-68
2024/03/19 09:27:14;;;;;;;11.70;9.63;;;12.30;70.50;;;;;;5001226;28;20214;-67
2024/03/19 09:29:41;;;;;;;13.73;9.77;;;12.50;70.80;;;;;;4991848;28;20206;-67
2024/03/19 09:32:07;;;;;;;12.10;9.90;;;12.70;69.60;;;;;;4991740;28;20237;-67
2024/03/19 09:34:34;;;;;;;11.13;9.47;;;13.10;68.20;;;;;;4992447;28;20206;-67
2024/03/19 09:37:01;;;;;;;11.03;9.90;;;13.10;69.10;;;;;;4999213;28;20738;-69
2024/03/19 09:39:28;;;;;;;11.07;9.97;;;13.00;68.90;;;;;;5007395;28;20717;-68
2024/03/19 09:41:55;;;;;;;10.50;9.23;;;12.60;69.40;;;;;;5007857;28;20234;-68
2024/03/19 09:44:22;;;;;;;10.17;9.17;;;12.70;69.10;;;;;;4996980;28;20274;-66
2024/03/19 09:46:49;;;;;;;11.80;9.93;;;12.80;67.50;;;;;;5001496;28;20242;-68
2024/03/19 09:49:15;;;;;;;10.13;9.00;;;13.50;66.90;;;;;;5007215;28;20237;-68
2024/03/19 09:51:42;;;;;;;11.47;8.70;;;13.30;66.00;;;;;;5009778;28;20230;-68
2024/03/19 09:54:09;;;;;;;12.63;9.40;;;13.30;67.70;;;;;;5005402;28;20211;-68
2024/03/19 09:56:36;;;;;;;11.97;9.40;;;13.20;67.50;;;;;;5011954;28;20218;-67
2024/03/19 09:59:02;;;;;;;10.80;9.70;;;13.20;66.80;;;;;;4994584;28;20588;-67
2024/03/19 10:01:29;;;;;;;11.17;9.97;;;13.30;66.60;;;;;;5011251;28;20245;-68
2024/03/19 10:03:56;;;;;;;10.73;9.60;;;13.00;67.20;;;;;;5008955;28;20204;-67
2024/03/19 10:06:23;;;;;;;10.93;9.20;;;13.70;65.60;;;;;;5006732;28;20216;-68
2024/03/19 10:08:49;;;;;;;10.77;9.00;;;15.80;60.60;;;;;;5010091;28;20239;-67
2024/03/19 10:11:16;;;;;;;9.50;8.50;;;17.20;61.10;;;;;;5011533;28;20674;-69
2024/03/19 10:13:43;;;;;;;10.70;8.13;;;18.00;65.90;;;;;;5006213;28;20690;-68
2024/03/19 10:16:09;;;;;;;7.95;7.13;;;18.60;66.00;;;;;;5008314;28;20211;-68
2024/03/19 10:18:38;;;;;;;7.70;6.90;;;19.80;61.30;;;;;;5011410;28;20233;-68
2024/03/19 10:21:07;;;;;;;8.75;7.47;;;20.90;60.90;;;;;;5011308;28;20227;-68
2024/03/19 10:23:34;;;;;;;9.00;8.20;;;20.00;61.40;;;;;;5007753;28;20697;-68
2024/03/19 10:26:03;;;;;;;8.45;7.60;;;;;;;;;;5005678;28;20236;-68
2024/03/19 10:28:32;;;;;;;8.05;7.30;;;;;;;;;;5003020;28;20211;-69
2024/03/19 10:31:01;;;;;;;8.68;7.47;;;;;;;;;;4991129;28;20556;-68
2024/03/19 10:33:30;;;;;;;8.85;7.95;;;;;;;;;;5005934;28;20215;-68
2024/03/19 10:35:58;;;;;;;7.15;6.45;;;;;;;;;;5003941;28;20220;-68
2024/03/19 10:38:26;;;;;;;8.13;6.65;;;;;;;;;;5005363;28;20210;-68
2024/03/19 10:40:54;;;;;;;7.10;6.43;;;;;;;;;;5010644;28;20231;-68
2024/03/19 10:43:22;;;;;;;6.88;6.28;;;;;;;;;;5000292;28;20234;-68
2024/03/19 10:45:51;;;;;;;7.30;6.60;;;;;;;;;;5008836;28;20222;-68
2024/03/19 10:48:18;;;;;;;7.18;6.47;;;25.50;79.60;;;;;;5007806;28;20207;-68
2024/03/19 10:50:44;;;;;;;6.15;5.55;;;26.10;62.50;;;;;;5008191;28;20600;-68
2024/03/19 10:53:12;;;;;;;6.57;5.93;;;24.40;53.10;;;;;;5008785;28;20735;-68
2024/03/19 10:55:39;;;;;;;6.15;5.45;;;24.10;69.10;;;;;;5009969;28;20318;-68
2024/03/19 10:58:06;;;;;;;7.13;6.43;;;20.80;78.10;;;;;;5010692;28;20207;-68
2024/03/19 11:00:35;;;;;;;9.88;8.07;;;;;;;;;;5006572;28;20199;-67
2024/03/19 11:03:04;;;;;;;9.63;8.73;;;;;;;;;;4997868;28;20608;-67
2024/03/19 11:05:33;;;;;;;9.63;8.40;;;;;;;;;;5001007;28;20281;-67
2024/03/19 11:08:02;;;;;;;10.88;9.85;;;21.60;71.80;;;;;;5001074;28;20291;-68
2024/03/19 11:10:29;;;;;;;9.88;8.90;;;21.90;70.80;;;;;;5004507;28;20210;-68
2024/03/19 11:12:56;;;;;;;7.90;7.10;;;;;;;;;;4997277;28;20259;-68
2024/03/19 11:15:25;;;;;;;8.60;7.05;;;;;;;;;;5008556;28;20255;-68
2024/03/19 11:17:52;;;;;;;8.10;6.38;;;;;;;;;;5005153;28;20211;-68
2024/03/19 11:20:19;;;;;;;9.30;6.30;;;29.10;69.90;;;;;;4998923;28;23414;-68
2024/03/19 11:22:45;;;;;;;6.63;6.03;;;31.30;39.90;;;;;;5005739;28;20286;-67
2024/03/19 11:25:13;;;;;;;6.72;6.13;;;;;;;;;;4997996;28;20681;-68
2024/03/19 11:27:40;;;;;;;6.75;6.00;;;33.40;44.10;;;;;;5007922;28;20202;-67
2024/03/19 11:30:05;;;;;;;6.35;5.53;;;33.00;58.00;;;;;;4986240;28;20229;-65
2024/03/19 11:32:34;;;;;;;6.43;5.93;;;32.50;47.60;;;;;;5005516;28;20222;-67
2024/03/19 11:35:04;;;;;;;6.30;5.65;;;32.40;28.90;;;;;;5003391;28;20294;-67
2024/03/19 11:37:31;;;;;;;6.30;5.80;;;33.50;42.20;;;;;;5008874;28;20610;-67
2024/03/19 11:39:58;;;;;;;5.50;5.00;;;28.30;34.00;;;;;;5007080;28;20207;-67
2024/03/19 11:42:24;;;;;;;4.95;4.55;;;31.30;45.40;;;;;;5001083;28;20234;-66
2024/03/19 11:44:51;;;;;;;6.40;5.90;;;33.30;21.90;;;;;;4995338;28;20203;-67
2024/03/19 11:47:18;;;;;;;5.22;4.82;;;32.50;35.90;;;;;;5000315;28;20211;-67
2024/03/19 11:49:44;;;;;;;5.20;4.80;;;32.50;27.90;;;;;;5007789;28;20202;-68
2024/03/19 11:52:12;;;;;;;5.85;5.45;;;32.50;24.50;;;;;;5002900;28;20229;-69
2024/03/19 11:54:38;;;;;;;5.95;5.45;;;32.30;23.60;;;;;;5013087;28;20218;-68
2024/03/19 11:57:05;;;;;;;6.05;5.50;;;31.60;23.70;;;;;;4998751;28;20206;-69
2024/03/19 11:59:32;;;;;;;7.32;6.70;;;32.50;22.80;;;;;;4996889;28;20209;-68
2024/03/19 12:01:59;;;;;;;6.10;5.60;;;32.40;20.30;;;;;;5012062;28;20226;-67
2024/03/19 12:04:25;;;;;;;3.72;3.42;;;32.80;20.00;;;;;;5008124;28;20224;-68
2024/03/19 12:06:52;;;;;;;3.55;3.25;;;32.60;18.30;;;;;;5012503;28;20217;-67
2024/03/19 12:09:19;;;;;;;3.72;3.40;;;33.00;17.90;;;;;;5012356;28;20297;-68
2024/03/19 12:11:45;;;;;;;3.28;2.95;;;32.40;18.30;;;;;;5007844;28;20684;-67
2024/03/19 12:14:12;;;;;;;3.22;2.92;;;32.50;18.30;;;;;;5003640;28;20301;-67
2024/03/19 12:16:38;;;;;;;3.30;3.00;;;32.80;18.50;;;;;;5008861;28;20737;-65
2024/03/19 12:19:05;;;;;;;4.32;3.97;;;32.10;17.20;;;;;;5013746;28;20238;-66
2024/03/19 12:21:32;;;;;;;5.03;4.63;;;32.50;18.20;;;;;;5005557;28;20314;-68
2024/03/19 12:23:58;;;;;;;4.40;4.10;;;32.40;18.00;;;;;;5003667;28;20221;-68
2024/03/19 12:26:25;;;;;;;4.50;4.20;;;32.30;18.60;;;;;;5004028;28;20211;-68
2024/03/19 12:28:52;;;;;;;4.47;4.07;;;32.40;18.10;;;;;;5011775;28;20206;-67
2024/03/19 12:31:24;;;;;;;4.55;4.15;;;31.70;18.80;;;;;;5000131;28;20234;-68
2024/03/19 12:33:53;;;;;;;4.13;3.40;;;31.90;18.80;;;;;;5003457;28;20277;-68
2024/03/19 12:36:20;;;;;;;4.57;4.15;;;29.10;22.60;;;;;;5004257;28;20297;-67
2024/03/19 12:38:47;;;;;;;4.28;3.97;;;;;;;;;;5004780;28;20297;-67
2024/03/19 12:41:15;;;;;;;4.30;4.00;;;27.90;43.00;;;;;;5011003;28;20688;-67
2024/03/19 12:43:41;;;;;;;4.95;3.55;;;25.40;25.20;;;;;;5000502;28;20296;-68